Time;durP1;ratioP1;P1;durP2;ratioP2;P2;SDS_P1;SDS_P2;PMS_P1;PMS_P2;Temp;Humidity;BMP_temperature;BMP_pressure;BME280_temperature;BME280_humidity;BME280_pressure;Samples;Min_cycle;Max_cycle;Signal;HPM_P1;HPM_P2
2021/06/16 00:00:52;;;;;;;17.87;13.27;;;;;;;19.45;67.02;100595.30;126796;1093;103044;-85
2021/06/16 00:03:21;;;;;;;12.65;11.38;;;;;;;19.46;66.94;100588.05;125184;1093;115001;-85
2021/06/16 00:05:48;;;;;;;15.70;11.10;;;;;;;19.51;67.19;100589.53;125227;1093;103140;-87
2021/06/16 00:08:16;;;;;;;17.10;12.73;;;;;;;19.54;67.90;100585.77;125311;1093;102992;-85
2021/06/16 00:10:44;;;;;;;12.70;11.40;;;;;;;19.53;67.22;100575.92;125544;1093;116727;-85
2021/06/16 00:13:11;;;;;;;13.40;11.77;;;;;;;19.53;67.23;100581.33;125541;1093;103045;-88
2021/06/16 00:15:58;;;;;;;12.60;11.30;;;;;;;19.49;67.80;100593.28;125262;1093;114858;-86
2021/06/16 00:18:26;;;;;;;14.80;12.20;;;;;;;19.43;68.72;100594.50;125569;1092;103688;-85
2021/06/16 00:20:53;;;;;;;15.80;11.03;;;;;;;19.35;68.05;100589.59;124500;1093;115079;-85
2021/06/16 00:23:20;;;;;;;13.03;9.73;;;;;;;19.29;68.56;100589.09;124793;1093;103745;-87
2021/06/16 00:25:49;;;;;;;10.60;9.48;;;;;;;19.29;68.71;100591.79;125436;1092;102927;-89
2021/06/16 00:28:16;;;;;;;13.38;9.85;;;;;;;19.33;68.50;100587.94;125429;1092;114631;-85
2021/06/16 00:30:43;;;;;;;19.90;11.10;;;;;;;19.36;68.20;100585.05;125599;1093;103080;-87
2021/06/16 00:33:11;;;;;;;12.27;9.27;;;;;;;19.35;68.11;100589.59;125420;1092;114968;-88
2021/06/16 00:35:39;;;;;;;12.70;9.93;;;;;;;19.29;68.41;100595.34;125450;1092;102943;-85
2021/06/16 00:38:07;;;;;;;12.48;10.48;;;;;;;19.29;68.12;100595.34;125385;1093;102987;-86
2021/06/16 00:40:34;;;;;;;12.17;9.47;;;;;;;19.34;67.87;100592.36;125412;1093;114968;-86
2021/06/16 00:43:02;;;;;;;10.40;9.33;;;;;;;19.27;68.10;100588.30;125602;1091;103093;-85
2021/06/16 00:45:30;;;;;;;12.67;8.07;;;;;;;19.10;68.27;100592.88;125752;1092;115026;-86
2021/06/16 00:47:58;;;;;;;12.75;9.63;;;;;;;19.00;67.80;100595.23;125582;1093;104965;-87
2021/06/16 00:50:35;;;;;;;15.03;8.93;;;;;;;18.98;67.62;100593.58;125473;1093;116108;-86
2021/06/16 00:53:04;;;;;;;10.67;9.57;;;;;;;18.97;67.34;100605.36;125326;1093;103003;-88
2021/06/16 00:55:39;;;;;;;13.43;9.10;;;;;;;18.91;67.38;100597.61;125259;1092;102984;-84
2021/06/16 00:58:20;;;;;;;17.90;8.80;;;;;;;18.93;66.79;100585.77;125336;1093;114817;-89
2021/06/16 01:01:07;;;;;;;11.50;8.30;;;;;;;18.90;66.14;100585.06;125239;1093;103070;-85
2021/06/16 01:04:01;;;;;;;10.83;8.53;;;;;;;18.95;66.24;100583.83;125506;1092;114562;-85
2021/06/16 01:06:33;;;;;;;14.47;8.73;;;;;;;18.91;65.65;100581.41;125564;1093;103211;-83
2021/06/16 01:09:12;;;;;;;9.43;8.50;;;;;;;18.84;65.90;100580.87;125422;1093;114891;-86
2021/06/16 01:12:05;;;;;;;9.77;8.43;;;;;;;18.79;65.71;100591.91;125862;1093;102948;-87
2021/06/16 01:14:53;;;;;;;8.55;7.70;;;;;;;18.89;65.46;100600.40;125129;1093;114685;-86
2021/06/16 01:17:49;;;;;;;15.83;10.15;;;;;;;18.87;65.46;100599.57;125141;1093;103023;-87
2021/06/16 01:20:41;;;;;;;15.23;8.45;;;;;;;18.83;65.37;100598.02;125334;1093;103023;-84
2021/06/16 01:23:09;;;;;;;8.67;7.87;;;;;;;18.85;65.26;100615.86;125217;1093;103009;-86
2021/06/16 01:25:52;;;;;;;8.63;7.78;;;;;;;18.86;65.21;100611.34;125139;1093;103133;-85
2021/06/16 01:28:23;;;;;;;12.63;9.47;;;;;;;18.86;65.03;100611.34;124799;1093;114783;-83
2021/06/16 01:30:51;;;;;;;11.73;8.03;;;;;;;18.79;64.42;100605.41;125020;1092;103022;-85
2021/06/16 01:33:18;;;;;;;11.03;7.80;;;;;;;18.78;64.15;100610.89;124769;1093;114846;-83
2021/06/16 01:36:00;;;;;;;10.93;7.30;;;;;;;18.71;63.87;100610.38;124881;1095;103124;-85
2021/06/16 01:38:28;;;;;;;10.90;7.67;;;;;;;18.59;64.16;100605.69;124788;1095;103166;-87
2021/06/16 01:41:11;;;;;;;9.03;7.27;;;;;;;18.42;64.62;100601.23;124560;1096;114584;-87
2021/06/16 01:43:39;;;;;;;10.23;7.97;;;;;;;18.36;64.39;100597.06;124369;1096;103271;-84
2021/06/16 01:46:08;;;;;;;9.23;7.60;;;;;;;18.32;64.40;100599.05;124458;1096;116565;-84
2021/06/16 01:48:50;;;;;;;10.20;6.55;;;;;;;18.31;64.07;100589.25;124674;1099;103090;-87
2021/06/16 01:51:20;;;;;;;9.18;6.38;;;;;;;18.30;64.52;100597.39;125261;1100;116677;-83
2021/06/16 01:54:02;;;;;;;10.00;7.50;;;;;;;18.31;64.27;100597.33;124998;1100;102990;-89
2021/06/16 01:56:31;;;;;;;9.37;7.50;;;;;;;18.33;63.75;100608.03;125651;1099;103007;-88
2021/06/16 01:58:59;;;;;;;11.50;6.85;;;;;;;18.31;64.19;100609.92;126104;1097;114969;-86
2021/06/16 02:01:29;;;;;;;8.63;7.50;;;;;;;18.26;63.73;100620.09;125827;1096;103072;-88
2021/06/16 02:03:57;;;;;;;10.70;7.18;;;;;;;18.32;63.72;100626.02;125548;1095;113802;-86
2021/06/16 02:06:30;;;;;;;9.73;6.78;;;;;;;18.30;63.77;100636.03;125406;1095;104290;-85
2021/06/16 02:08:59;;;;;;;7.93;7.13;;;;;;;18.27;64.56;100640.70;125516;1095;113662;-83
2021/06/16 02:11:27;;;;;;;13.03;8.77;;;;;;;18.23;65.70;100642.69;125434;1096;103241;-84
2021/06/16 02:13:57;;;;;;;10.75;7.30;;;;;;;18.23;66.31;100641.83;124908;1094;103072;-87
2021/06/16 02:16:41;;;;;;;10.25;7.90;;;;;;;18.26;66.21;100644.35;124708;1094;114571;-85
2021/06/16 02:19:14;;;;;;;11.50;9.23;;;;;;;18.28;66.44;100648.70;125102;1093;103150;-85
2021/06/16 02:21:44;;;;;;;9.58;8.05;;;;;;;18.29;66.03;100653.16;125315;1093;114335;-85
2021/06/16 02:24:12;;;;;;;8.70;6.30;;;;;;;18.25;64.67;100653.39;125503;1093;102919;-85
2021/06/16 02:26:40;;;;;;;7.17;6.03;;;;;;;18.21;62.69;100647.31;125359;1093;102999;-86
2021/06/16 02:29:09;;;;;;;11.05;6.75;;;;;;;18.14;62.08;100653.97;125146;1092;114395;-84
2021/06/16 02:31:39;;;;;;;8.13;5.85;;;;;;;18.10;61.98;100641.61;125274;1093;103175;-85
2021/06/16 02:34:07;;;;;;;9.23;5.75;;;;;;;18.05;61.26;100647.27;125261;1093;114627;-82
2021/06/16 02:36:45;;;;;;;6.40;5.43;;;;;;;17.97;60.54;100649.52;125154;1093;105388;-84
2021/06/16 02:39:19;;;;;;;8.08;5.05;;;;;;;17.89;60.10;100660.66;125313;1092;116296;-84
2021/06/16 02:42:01;;;;;;;5.20;4.43;;;;;;;17.85;59.03;100670.72;125162;1092;103068;-85
2021/06/16 02:44:43;;;;;;;7.97;3.23;;;;;;;17.76;57.33;100665.81;124955;1093;103000;-87
2021/06/16 02:47:22;;;;;;;4.20;3.40;;;;;;;17.68;58.00;100659.95;124806;1093;114201;-87
2021/06/16 02:49:55;;;;;;;5.87;4.27;;;;;;;17.59;56.61;100673.89;125494;1093;103026;-84
2021/06/16 02:52:23;;;;;;;6.53;3.83;;;;;;;17.51;57.07;100685.94;125334;1093;115976;-85
2021/06/16 02:55:04;;;;;;;4.23;2.45;;;;;;;17.43;55.86;100680.05;125415;1093;103077;-85
2021/06/16 02:57:39;;;;;;;3.58;2.85;;;;;;;17.42;56.51;100686.41;125294;1093;114779;-85
2021/06/16 03:00:11;;;;;;;4.70;2.63;;;;;;;17.37;56.67;100683.06;125313;1093;103015;-84
2021/06/16 03:02:41;;;;;;;3.58;2.90;;;;;;;17.32;56.54;100680.59;125463;1092;106319;-84
2021/06/16 03:05:11;;;;;;;5.98;3.40;;;;;;;17.30;56.42;100676.23;125206;1093;114530;-84
2021/06/16 03:07:58;;;;;;;5.93;2.93;;;;;;;17.23;56.34;100682.88;125211;1094;103693;-86
2021/06/16 03:10:29;;;;;;;4.53;3.18;;;;;;;17.26;56.45;100690.80;125120;1093;114764;-84
2021/06/16 03:12:59;;;;;;;6.57;3.63;;;;;;;17.24;56.56;100692.70;125193;1093;102934;-86
2021/06/16 03:15:28;;;;;;;3.97;3.03;;;;;;;17.17;56.37;100684.92;125038;1093;115472;-84
2021/06/16 03:17:56;;;;;;;4.50;2.55;;;;;;;17.18;56.90;100691.17;125244;1093;102995;-83
2021/06/16 03:20:40;;;;;;;4.38;2.98;;;;;;;17.19;56.66;100692.92;125128;1096;103165;-87
2021/06/16 03:23:09;;;;;;;3.23;2.80;;;;;;;17.18;56.30;100689.36;125144;1093;113979;-86
2021/06/16 03:25:38;;;;;;;3.27;2.60;;;;;;;17.20;56.50;100689.28;125406;1093;103179;-84
2021/06/16 03:28:06;;;;;;;4.97;3.70;;;;;;;17.21;57.01;100697.28;124954;1093;114608;-86
2021/06/16 03:30:35;;;;;;;2.80;2.57;;;;;;;17.24;56.40;100701.64;125140;1095;102933;-84
2021/06/16 03:33:04;;;;;;;5.93;3.38;;;;;;;17.29;56.26;100701.43;125026;1096;114762;-84
2021/06/16 03:35:31;;;;;;;9.65;2.95;;;;;;;17.34;56.86;100702.94;125184;1094;103086;-85
2021/06/16 03:38:02;;;;;;;5.90;2.90;;;;;;;17.35;56.55;100704.69;125220;1093;103565;-85
2021/06/16 03:40:30;;;;;;;5.80;2.85;;;;;;;17.35;56.53;100709.18;125435;1093;114303;-84
2021/06/16 03:43:12;;;;;;;5.43;2.78;;;;;;;17.35;57.33;100710.08;125339;1092;103533;-84
2021/06/16 03:45:40;;;;;;;4.95;3.25;;;;;;;17.35;57.07;100710.08;125198;1092;114412;-84
2021/06/16 03:48:09;;;;;;;5.77;2.70;;;;;;;17.34;57.18;100711.02;125306;1093;103648;-84
2021/06/16 03:50:53;;;;;;;8.07;3.90;;;;;;;17.37;57.70;100721.63;125153;1093;114619;-84
2021/06/16 03:53:21;;;;;;;7.25;3.30;;;;;;;17.35;57.13;100726.23;125416;1092;103058;-83
2021/06/16 03:56:00;;;;;;;4.13;2.70;;;;;;;17.32;57.61;100726.36;125512;1092;103121;-84
2021/06/16 03:58:28;;;;;;;8.53;3.10;;;;;;;17.36;57.82;100735.16;125961;1093;113563;-83
2021/06/16 04:01:15;;;;;;;3.38;2.68;;;;;;;17.44;57.59;100737.48;125005;1093;103083;-84
2021/06/16 04:03:43;;;;;;;4.83;3.00;;;;;;;17.46;57.44;100740.95;125140;1092;114603;-85
2021/06/16 04:06:14;;;;;;;5.40;3.10;;;;;;;17.42;57.21;100739.36;125008;1092;103108;-85
2021/06/16 04:08:44;;;;;;;4.57;3.27;;;;;;;17.41;57.32;100741.20;125074;1093;103065;-86
2021/06/16 04:11:14;;;;;;;7.85;2.95;;;;;;;17.42;57.62;100745.64;125372;1092;114253;-86
2021/06/16 04:13:42;;;;;;;6.13;3.30;;;;;;;17.42;58.27;100745.64;125340;1092;102981;-86
2021/06/16 04:16:10;;;;;;;5.00;2.90;;;;;;;17.42;58.68;100740.25;125311;1092;115658;-88
2021/06/16 04:18:41;;;;;;;4.38;2.60;;;;;;;17.44;58.02;100743.73;125246;1093;103077;-83
2021/06/16 04:21:09;;;;;;;6.20;2.83;;;;;;;17.51;58.65;100746.98;125310;1092;114780;-91
2021/06/16 04:23:51;;;;;;;4.60;3.88;;;;;;;17.55;58.85;100745.88;125338;1093;103047;-83
2021/06/16 04:26:23;;;;;;;7.35;3.95;;;;;;;17.54;59.00;100733.39;125420;1093;102962;-84
2021/06/16 04:29:04;;;;;;;4.97;3.37;;;;;;;17.52;58.67;100743.35;125364;1093;114721;-86
2021/06/16 04:31:31;;;;;;;4.50;2.60;;;;;;;17.49;58.63;100740.83;125225;1092;102946;-86
2021/06/16 04:33:59;;;;;;;5.10;2.83;;;;;;;17.57;58.78;100737.72;125813;1093;115567;-84
2021/06/16 04:36:26;;;;;;;4.58;3.33;;;;;;;17.61;58.70;100742.03;125355;1093;103079;-84
2021/06/16 04:38:54;;;;;;;5.65;3.03;;;;;;;17.51;58.57;100739.80;125297;1090;114762;-88
2021/06/16 04:41:22;;;;;;;5.93;3.13;;;;;;;17.52;58.54;100740.66;125499;1093;102981;-86
2021/06/16 04:43:49;;;;;;;7.00;2.97;;;;;;;17.44;58.42;100737.48;125235;1093;103031;-84
2021/06/16 04:46:20;;;;;;;3.60;2.90;;;;;;;17.38;58.61;100738.67;125153;1093;114704;-85
2021/06/16 04:48:47;;;;;;;4.43;2.55;;;;;;;17.28;59.20;100735.53;125304;1093;103121;-86
2021/06/16 04:51:19;;;;;;;5.48;2.73;;;;;;;17.29;58.84;100728.34;125228;1093;114849;-85
2021/06/16 04:53:47;;;;;;;11.50;3.50;;;;;;;17.43;58.78;100731.20;125207;1093;103206;-87
2021/06/16 04:56:15;;;;;;;4.47;3.17;;;;;;;17.51;58.75;100726.33;125386;1092;103020;-86
2021/06/16 04:58:42;;;;;;;7.63;3.90;;;;;;;17.51;59.08;100726.33;125222;1093;115479;-85
2021/06/16 05:01:31;;;;;;;3.88;2.80;;;;;;;17.70;58.72;100728.06;125195;1093;102994;-84
2021/06/16 05:03:58;;;;;;;6.57;2.90;;;;;;;17.83;58.45;100736.41;125328;1093;116373;-82
2021/06/16 05:06:26;;;;;;;6.98;3.13;;;;;;;17.91;57.76;100744.10;125472;1093;102902;-85
2021/06/16 05:08:54;;;;;;;3.30;2.58;;;;;;;17.95;57.02;100748.41;125204;1093;114692;-84
2021/06/16 05:11:21;;;;;;;5.17;3.00;;;;;;;17.99;57.22;100750.89;125315;1093;102985;-84
2021/06/16 05:13:49;;;;;;;5.00;2.60;;;;;;;17.89;57.35;100755.83;125232;1093;102905;-86
2021/06/16 05:16:16;;;;;;;6.57;3.50;;;;;;;17.88;57.34;100751.38;125546;1091;114861;-89
2021/06/16 05:18:46;;;;;;;13.18;4.10;;;;;;;17.93;57.19;100753.03;125460;1091;103028;-84
2021/06/16 05:21:14;;;;;;;8.45;3.88;;;;;;;17.96;56.97;100748.33;125421;1093;114710;-85
2021/06/16 05:23:43;;;;;;;6.60;2.83;;;;;;;17.96;57.20;100748.33;125318;1092;103690;-92
2021/06/16 05:26:10;;;;;;;6.43;3.00;;;;;;;17.98;57.81;100740.16;125567;1092;102910;-85
2021/06/16 05:28:38;;;;;;;9.60;3.70;;;;;;;17.99;57.43;100740.11;125302;1093;114636;-86
2021/06/16 05:31:05;;;;;;;5.67;3.47;;;;;;;18.04;57.81;100739.85;125447;1093;102993;-86
2021/06/16 05:33:32;;;;;;;7.85;2.85;;;;;;;18.13;57.42;100747.45;125350;1092;116419;-88
2021/06/16 05:36:00;;;;;;;5.30;3.70;;;;;;;18.21;56.21;100752.45;125392;1093;102999;-88
2021/06/16 05:38:28;;;;;;;6.00;3.55;;;;;;;18.23;55.82;100764.01;125370;1093;103534;-84
2021/06/16 05:40:56;;;;;;;4.35;2.58;;;;;;;18.24;56.17;100764.91;125182;1092;114382;-88
2021/06/16 05:43:23;;;;;;;13.20;3.30;;;;;;;18.30;57.15;100768.14;125278;1093;103079;-85
2021/06/16 05:46:04;;;;;;;8.53;3.07;;;;;;;18.34;56.45;100764.33;125448;1093;114721;-87
2021/06/16 05:48:32;;;;;;;6.93;2.80;;;;;;;18.36;56.28;100764.25;125343;1092;103093;-86
2021/06/16 05:51:00;;;;;;;9.08;3.53;;;;;;;18.45;55.63;100762.89;125269;1093;114533;-86
2021/06/16 05:53:41;;;;;;;8.55;3.75;;;;;;;18.56;55.78;100755.08;125556;1093;102890;-87
2021/06/16 05:56:08;;;;;;;4.85;3.70;;;;;;;18.59;54.90;100751.34;126791;1093;102908;-87
2021/06/16 05:58:36;;;;;;;7.17;3.87;;;;;;;18.65;55.24;100749.19;125017;1093;114330;-84
2021/06/16 06:01:04;;;;;;;6.65;3.20;;;;;;;18.70;55.49;100759.75;125040;1093;103001;-86
2021/06/16 06:03:31;;;;;;;5.73;3.18;;;;;;;18.68;55.56;100759.80;125450;1093;114678;-88
2021/06/16 06:06:13;;;;;;;7.97;3.60;;;;;;;18.77;55.10;100757.58;125481;1096;103007;-85
2021/06/16 06:08:40;;;;;;;6.78;2.80;;;;;;;18.79;54.75;100761.05;125459;1096;103185;-90
2021/06/16 06:11:08;;;;;;;5.50;2.85;;;;;;;18.83;55.00;100760.81;125126;1096;114675;-87
2021/06/16 06:13:35;;;;;;;5.80;2.60;;;;;;;18.88;55.29;100765.94;125272;1096;101861;-86
2021/06/16 06:16:03;;;;;;;5.27;2.93;;;;;;;18.91;54.51;100764.94;125200;1095;116589;-88
2021/06/16 06:18:35;;;;;;;5.85;2.70;;;;;;;18.93;55.60;100768.44;125455;1095;103069;-88
2021/06/16 06:21:02;;;;;;;5.40;3.10;;;;;;;19.06;54.38;100772.19;125293;1094;116456;-90
2021/06/16 06:23:30;;;;;;;7.30;3.60;;;;;;;19.12;55.02;100769.13;125460;1095;103153;-86
2021/06/16 06:26:12;;;;;;;7.87;2.87;;;;;;;19.21;54.68;100779.41;125247;1096;103166;-88
2021/06/16 06:28:42;;;;;;;8.38;3.05;;;;;;;19.26;53.83;100776.47;125221;1095;114677;-87
2021/06/16 06:31:09;;;;;;;7.30;3.10;;;;;;;19.32;54.14;100773.39;125312;1096;103240;-87
2021/06/16 06:33:51;;;;;;;7.00;3.63;;;;;;;19.38;53.92;100778.45;124948;1096;114438;-87
2021/06/16 06:36:33;;;;;;;5.73;3.17;;;;;;;19.38;53.84;100778.45;124847;1096;103125;-85
2021/06/16 06:39:03;;;;;;;4.68;3.08;;;;;;;19.45;53.80;100780.81;124948;1095;114552;-86
2021/06/16 06:41:31;;;;;;;4.10;2.38;;;;;;;19.46;53.73;100780.72;124428;1099;103007;-87
2021/06/16 06:43:58;;;;;;;7.18;3.40;;;;;;;19.57;53.57;100785.50;125074;1095;103051;-83
2021/06/16 06:46:26;;;;;;;6.43;3.40;;;;;;;19.71;53.64;100784.69;125120;1095;114624;-84
2021/06/16 06:48:54;;;;;;;8.28;2.65;;;;;;;19.82;52.18;100781.38;125161;1096;103156;-87
2021/06/16 06:51:21;;;;;;;7.00;3.10;;;;;;;19.85;52.51;100783.92;125196;1096;115035;-84
2021/06/16 06:53:49;;;;;;;8.73;3.30;;;;;;;19.91;52.30;100778.13;125269;1096;103066;-86
2021/06/16 06:56:16;;;;;;;3.70;2.08;;;;;;;20.00;51.07;100785.70;125365;1096;103153;-86
2021/06/16 06:58:43;;;;;;;5.07;2.80;;;;;;;19.94;50.64;100786.08;124691;1096;114410;-86
2021/06/16 07:01:11;;;;;;;7.20;2.70;;;;;;;19.91;51.58;100780.84;125326;1095;103002;-85
2021/06/16 07:03:38;;;;;;;6.37;2.63;;;;;;;19.94;51.70;100787.89;125277;1096;114806;-85
2021/06/16 07:06:06;;;;;;;5.05;2.73;;;;;;;19.94;50.72;100779.78;125268;1096;103185;-89
2021/06/16 07:08:34;;;;;;;6.93;2.50;;;;;;;20.00;50.26;100790.25;125307;1095;103725;-86
2021/06/16 07:11:01;;;;;;;7.87;3.00;;;;;;;20.10;48.95;100777.92;125164;1096;114805;-83
2021/06/16 07:13:29;;;;;;;3.90;2.33;;;;;;;20.14;49.27;100776.77;125278;1093;103098;-84
2021/06/16 07:16:07;;;;;;;7.35;2.90;;;;;;;20.26;50.25;100771.56;125229;1092;114480;-83
2021/06/16 07:18:35;;;;;;;4.48;2.43;;;;;;;20.32;48.69;100777.47;125278;1093;102902;-79
2021/06/16 07:21:04;;;;;;;5.45;2.05;;;;;;;20.30;49.97;100775.82;125185;1093;114952;-83
2021/06/16 07:23:32;;;;;;;5.33;2.15;;;;;;;20.29;49.45;100782.22;125421;1093;103000;-84
2021/06/16 07:25:59;;;;;;;5.58;2.55;;;;;;;20.33;49.87;100770.25;125322;1093;103021;-84
2021/06/16 07:28:27;;;;;;;5.63;2.50;;;;;;;20.47;50.17;100775.68;125159;1093;114525;-85
2021/06/16 07:30:54;;;;;;;3.68;2.48;;;;;;;20.61;50.24;100776.66;125290;1093;102882;-85
2021/06/16 07:33:22;;;;;;;4.77;2.37;;;;;;;20.68;50.46;100775.29;125252;1093;115161;-86
2021/06/16 07:35:51;;;;;;;7.77;2.67;;;;;;;20.77;50.55;100773.89;125241;1092;103569;-84
2021/06/16 07:38:18;;;;;;;4.68;3.10;;;;;;;20.84;50.31;100775.22;125288;1092;103011;-85
2021/06/16 07:40:46;;;;;;;13.73;2.70;;;;;;;20.88;49.54;100766.80;125208;1093;115790;-84
2021/06/16 07:43:27;;;;;;;4.30;2.35;;;;;;;20.96;48.08;100768.16;125371;1093;102877;-84
2021/06/16 07:46:01;;;;;;;4.40;2.33;;;;;;;20.99;49.62;100771.55;125440;1093;114274;-83
2021/06/16 07:48:29;;;;;;;4.83;1.90;;;;;;;20.98;48.17;100772.52;125288;1093;103117;-82
2021/06/16 07:50:56;;;;;;;6.37;2.43;;;;;;;21.09;48.69;100769.11;125066;1093;114721;-83
2021/06/16 07:53:24;;;;;;;10.38;3.00;;;;;;;21.17;48.08;100774.89;125319;1093;102991;-86
2021/06/16 07:55:52;;;;;;;3.97;2.03;;;;;;;21.33;48.06;100773.91;125919;1091;103076;-82
2021/06/16 07:58:19;;;;;;;3.70;1.70;;;;;;;21.40;47.60;100769.80;124841;1093;114703;-83
2021/06/16 08:01:01;;;;;;;2.67;2.03;;;;;;;21.44;46.05;100770.48;125395;1092;103044;-85
2021/06/16 08:03:29;;;;;;;4.38;1.83;;;;;;;21.50;45.60;100775.51;125309;1093;114565;-81
2021/06/16 08:05:57;;;;;;;10.33;3.37;;;;;;;21.56;47.80;100779.67;125322;1093;103163;-85
2021/06/16 08:08:38;;;;;;;5.65;2.25;;;;;;;21.64;47.45;100778.17;125464;1093;103716;-83
2021/06/16 08:11:05;;;;;;;8.70;3.07;;;;;;;21.75;48.20;100785.58;125242;1093;114283;-83
2021/06/16 08:13:33;;;;;;;6.45;3.13;;;;;;;21.84;46.81;100784.97;125373;1093;102982;-87
2021/06/16 08:16:01;;;;;;;4.10;1.98;;;;;;;21.94;46.79;100784.34;125370;1093;115684;-83
2021/06/16 08:18:29;;;;;;;6.60;2.40;;;;;;;22.04;46.75;100780.89;125502;1093;103115;-84
2021/06/16 08:20:56;;;;;;;3.77;2.83;;;;;;;22.13;46.66;100786.69;125262;1093;116590;-86
2021/06/16 08:23:24;;;;;;;6.30;3.17;;;;;;;22.25;46.31;100790.40;125546;1093;103131;-85
2021/06/16 08:25:52;;;;;;;8.33;3.13;;;;;;;22.34;45.30;100784.33;125432;1093;103179;-85
2021/06/16 08:28:19;;;;;;;4.55;2.75;;;;;;;22.43;45.02;100791.86;125102;1093;115588;-84
2021/06/16 08:30:47;;;;;;;8.57;5.33;;;;;;;22.55;45.54;100790.10;125069;1093;103124;-82
2021/06/16 08:33:15;;;;;;;7.37;4.00;;;;;;;22.64;43.34;100794.88;125059;1091;114724;-83
2021/06/16 08:35:43;;;;;;;9.30;3.60;;;;;;;22.71;43.98;100790.77;124989;1093;103081;-85
2021/06/16 08:38:10;;;;;;;3.23;1.70;;;;;;;22.81;40.94;100787.40;125438;1093;102979;-84
2021/06/16 08:40:37;;;;;;;5.93;1.87;;;;;;;22.90;41.81;100789.45;125274;1093;115172;-83
2021/06/16 08:43:05;;;;;;;5.50;2.00;;;;;;;23.04;42.06;100794.77;125530;1093;103076;-83
2021/06/16 08:45:38;;;;;;;3.13;2.13;;;;;;;23.16;40.88;100786.72;125418;1093;116416;-84
2021/06/16 08:48:07;;;;;;;5.30;2.73;;;;;;;23.29;40.09;100797.56;125372;1093;103539;-82
2021/06/16 08:50:36;;;;;;;5.93;2.15;;;;;;;23.47;40.75;100798.03;125599;1093;103133;-84
2021/06/16 08:53:04;;;;;;;4.27;2.03;;;;;;;23.63;40.31;100790.48;125497;1093;115576;-86
2021/06/16 08:55:31;;;;;;;6.63;2.07;;;;;;;23.77;39.04;100797.58;125375;1092;102919;-84
2021/06/16 08:58:00;;;;;;;4.40;2.00;;;;;;;23.92;40.28;100805.60;125149;1092;114519;-82
2021/06/16 09:00:43;;;;;;;6.45;2.65;;;;;;;24.09;40.28;100809.76;125363;1093;103177;-84
2021/06/16 09:03:25;;;;;;;6.23;1.90;;;;;;;24.26;38.48;100808.43;125344;1095;115478;-85
2021/06/16 09:05:52;;;;;;;3.30;1.70;;;;;;;24.29;37.85;100808.22;125162;1096;103052;-83
2021/06/16 09:08:22;;;;;;;6.87;2.13;;;;;;;24.17;37.84;100804.59;125220;1095;103262;-82
2021/06/16 09:10:52;;;;;;;5.40;2.17;;;;;;;24.30;38.71;100808.09;125236;1095;115264;-83
2021/06/16 09:13:36;;;;;;;4.53;2.38;;;;;;;24.43;38.05;100818.02;125232;1096;103717;-85
2021/06/16 09:16:30;;;;;;;5.40;2.40;;;;;;;24.71;38.74;100805.83;125177;1095;114800;-84
2021/06/16 09:18:58;;;;;;;5.10;2.17;;;;;;;24.91;37.13;100806.09;125391;1096;103252;-81
2021/06/16 09:21:36;;;;;;;4.73;2.27;;;;;;;25.02;37.07;100797.94;125072;1095;113982;-82
2021/06/16 09:24:07;;;;;;;5.15;1.75;;;;;;;25.23;37.01;100799.89;125723;1096;103054;-82
2021/06/16 09:26:37;;;;;;;2.50;2.07;;;;;;;25.48;37.32;100807.80;125091;1096;103081;-83
2021/06/16 09:29:05;;;;;;;3.50;2.07;;;;;;;25.77;36.77;100807.23;125055;1096;113682;-83
2021/06/16 09:31:46;;;;;;;4.43;1.70;;;;;;;26.50;34.95;100810.14;124730;1098;103051;-82
2021/06/16 09:34:16;;;;;;;7.07;2.00;;;;;;;27.38;33.29;100800.66;124311;1099;114682;-82
2021/06/16 09:36:49;;;;;;;7.73;2.80;;;;;;;28.23;32.69;100801.04;124330;1100;103103;-82
2021/06/16 09:39:31;;;;;;;2.90;2.10;;;;;;;29.12;30.93;100808.03;124216;1098;114624;-84
2021/06/16 09:42:14;;;;;;;4.10;1.70;;;;;;;29.57;29.23;100798.14;125001;1095;103177;-84
2021/06/16 09:44:44;;;;;;;4.10;1.50;;;;;;;29.94;29.63;100800.77;125103;1096;103344;-87
2021/06/16 09:48:04;;;;;;;2.60;2.20;;;;;;;30.61;28.19;100802.19;124425;1096;114671;-81
2021/06/16 09:50:31;;;;;;;6.18;2.40;;;;;;;31.09;28.79;100802.66;125364;1095;103172;-83
2021/06/16 09:52:59;;;;;;;10.10;2.65;;;;;;;31.92;27.74;100798.26;125505;1096;116161;-83
2021/06/16 09:55:40;;;;;;;5.93;2.40;;;;;;;32.81;26.43;100799.27;125244;1096;103142;-85
2021/06/16 09:58:17;;;;;;;4.58;2.65;;;;;;;33.15;25.27;100794.48;124901;1095;114579;-82
2021/06/16 10:00:52;;;;;;;3.18;2.33;;;;;;;32.93;25.87;100796.14;124715;1095;103284;-83
2021/06/16 10:03:33;;;;;;;4.63;3.20;;;;;;;33.34;26.93;100788.56;125208;1095;114482;-83
2021/06/16 10:06:05;;;;;;;4.30;2.13;;;;;;;34.11;24.03;100795.16;125126;1096;103569;-85
2021/06/16 10:08:44;;;;;;;12.80;2.27;;;;;;;34.47;23.25;100788.09;125146;1095;104018;-82
2021/06/16 10:11:14;;;;;;;4.00;2.90;;;;;;;34.00;24.04;100795.58;125874;1093;114145;-87
2021/06/16 10:13:43;;;;;;;8.28;2.50;;;;;;;34.05;24.54;100795.89;125156;1093;103147;-83
2021/06/16 10:16:12;;;;;;;7.50;2.77;;;;;;;34.35;24.07;100793.25;125351;1093;114834;-82
2021/06/16 10:18:43;;;;;;;5.57;2.00;;;;;;;34.78;22.82;100803.70;125354;1093;102876;-84
2021/06/16 10:21:16;;;;;;;4.43;2.37;;;;;;;35.10;22.58;100796.09;125260;1093;115006;-84
2021/06/16 10:23:45;;;;;;;8.43;2.53;;;;;;;35.55;21.91;100793.24;125433;1093;103106;-84
2021/06/16 10:26:23;;;;;;;5.93;1.97;;;;;;;35.51;22.29;100794.69;125416;1093;103027;-84
2021/06/16 10:28:59;;;;;;;5.05;2.20;;;;;;;34.98;22.35;100798.48;125225;1093;114491;-83
2021/06/16 10:31:40;;;;;;;5.43;2.50;;;;;;;35.10;23.27;100796.94;125414;1093;103164;-81
2021/06/16 10:34:08;;;;;;;4.23;2.35;;;;;;;35.77;22.09;100789.44;125128;1093;114550;-82
2021/06/16 10:36:36;;;;;;;4.10;2.00;;;;;;;36.27;21.75;100795.06;124713;1093;103104;-83
2021/06/16 10:39:09;;;;;;;4.63;2.70;;;;;;;36.06;22.20;100795.09;125689;1093;114707;-81
2021/06/16 10:41:49;;;;;;;6.43;2.88;;;;;;;35.92;22.71;100792.20;124832;1093;103069;-81
2021/06/16 10:44:21;;;;;;;5.53;3.40;;;;;;;35.97;21.86;100795.20;125012;1093;103004;-83
2021/06/16 10:46:52;;;;;;;3.55;2.43;;;;;;;35.85;22.55;100784.87;124892;1093;115724;-82
2021/06/16 10:49:42;;;;;;;4.65;2.38;;;;;;;36.21;22.47;100789.46;125610;1093;102998;-84
2021/06/16 10:52:12;;;;;;;4.43;2.67;;;;;;;36.38;23.05;100787.29;124807;1092;115996;-82
2021/06/16 10:54:55;;;;;;;5.27;2.17;;;;;;;36.64;22.21;100790.25;124940;1093;105031;-83
2021/06/16 10:57:23;;;;;;;6.55;3.95;;;;;;;36.96;20.91;100784.26;125959;1092;113821;-82
2021/06/16 11:00:06;;;;;;;12.50;8.20;;;;;;;37.24;20.91;100786.98;126086;1092;103006;-83
2021/06/16 11:02:47;;;;;;;5.47;2.77;;;;;;;36.79;20.55;100787.35;125547;1095;103166;-83
2021/06/16 11:05:29;;;;;;;5.60;3.33;;;;;;;35.79;21.62;100786.46;126022;1096;113704;-84
2021/06/16 11:08:14;;;;;;;3.68;2.30;;;;;;;34.35;24.32;100784.08;125933;1096;102969;-84
2021/06/16 11:11:00;;;;;;;5.07;2.47;;;;;;;33.31;24.69;100783.41;125715;1096;114732;-84
2021/06/16 11:13:40;;;;;;;6.07;2.47;;;;;;;32.15;26.16;100780.02;125357;1096;103374;-82
2021/06/16 11:16:50;;;;;;;6.50;3.13;;;;;;;31.54;27.16;100778.53;125028;1095;114429;-84
2021/06/16 11:19:25;;;;;;;8.43;2.80;;;;;;;31.21;28.03;100786.72;125464;1096;103057;-82
2021/06/16 11:21:54;;;;;;;6.63;3.60;;;;;;;31.12;28.57;100783.06;125283;1093;114922;-81
2021/06/16 11:24:22;;;;;;;7.40;2.87;;;;;;;30.72;29.61;100781.80;125495;1093;103076;-82
2021/06/16 11:27:05;;;;;;;4.13;2.57;;;;;;;30.23;30.02;100782.30;124963;1092;102998;-84
2021/06/16 11:30:08;;;;;;;8.98;3.98;;;;;;;29.79;29.82;100775.72;125305;1093;114645;-83